createdAt,value
2018-11-02T00:02:09.461Z,24.57
2018-11-02T00:04:37.428Z,22.40
2018-11-02T00:07:05.444Z,21.40
2018-11-02T00:09:33.432Z,27.17
2018-11-02T00:12:01.397Z,22.83
2018-11-02T00:14:29.408Z,20.83
2018-11-02T00:16:57.666Z,22.77
2018-11-02T00:19:31.488Z,22.30
2018-11-02T00:22:00.520Z,22.47
2018-11-02T00:24:28.973Z,19.97
2018-11-02T00:26:57.485Z,21.40
2018-11-02T00:29:25.468Z,22.27
2018-11-02T00:31:53.549Z,23.10
2018-11-02T00:34:21.683Z,24.73
2018-11-02T00:36:49.686Z,20.70
2018-11-02T00:39:17.688Z,22.10
2018-11-02T00:41:45.657Z,27.33
2018-11-02T00:44:13.809Z,21.50
2018-11-02T00:46:41.976Z,21.83
2018-11-02T00:49:09.929Z,20.20
2018-11-02T00:51:38.247Z,21.40
2018-11-02T00:54:06.480Z,24.53
2018-11-02T00:56:34.593Z,23.73
2018-11-02T00:59:02.585Z,20.37
2018-11-02T01:01:30.717Z,26.80
2018-11-02T01:03:58.672Z,21.77
2018-11-02T01:06:26.723Z,21.93
2018-11-02T01:08:54.693Z,27.43
2018-11-02T01:11:22.719Z,21.83
2018-11-02T01:13:50.726Z,22.20
2018-11-02T01:16:18.717Z,25.20
2018-11-02T01:18:47.465Z,28.17
2018-11-02T01:21:15.669Z,27.13
2018-11-02T01:23:43.653Z,27.30
2018-11-02T01:26:11.612Z,29.63
2018-11-02T01:28:39.630Z,27.00
2018-11-02T01:31:07.645Z,33.60
2018-11-02T01:33:36.590Z,26.47
2018-11-02T01:36:05.421Z,25.10
2018-11-02T01:38:33.328Z,25.90
2018-11-02T01:41:01.300Z,26.20
2018-11-02T01:43:29.266Z,24.23
2018-11-02T01:45:57.230Z,24.73
2018-11-02T01:48:25.465Z,28.20
2018-11-02T01:50:54.161Z,26.37
2018-11-02T01:53:22.142Z,30.07
2018-11-02T01:55:50.466Z,27.57
2018-11-02T01:58:18.660Z,33.23
2018-11-02T02:00:53.712Z,25.53
2018-11-02T02:03:22.797Z,28.97
2018-11-02T02:05:50.814Z,28.07
2018-11-02T02:08:19.028Z,29.97
2018-11-02T02:10:47.497Z,27.80
2018-11-02T02:13:15.750Z,29.23
2018-11-02T02:15:43.735Z,30.13
2018-11-02T02:18:11.821Z,28.63
2018-11-02T02:20:39.780Z,31.97
2018-11-02T02:23:07.766Z,29.13
2018-11-02T02:25:35.717Z,39.90
2018-11-02T02:28:03.663Z,28.00
2018-11-02T02:30:31.742Z,25.53
2018-11-02T02:32:59.700Z,27.10
2018-11-02T02:35:27.672Z,24.63
2018-11-02T02:37:55.686Z,25.23
2018-11-02T02:40:23.715Z,24.73
2018-11-02T02:42:51.683Z,27.37
2018-11-02T02:45:19.680Z,26.00
2018-11-02T02:47:47.628Z,26.50
2018-11-02T02:50:15.620Z,29.63
2018-11-02T02:52:44.395Z,27.27
2018-11-02T02:55:12.390Z,28.13
2018-11-02T02:57:40.732Z,27.50
2018-11-02T03:00:10.689Z,25.27
2018-11-02T03:02:38.660Z,27.90
2018-11-02T03:05:06.631Z,26.37
2018-11-02T03:07:34.609Z,28.20
2018-11-02T03:10:02.617Z,30.10
2018-11-02T03:12:30.584Z,32.43
2018-11-02T03:14:58.573Z,28.13
2018-11-02T03:17:26.721Z,29.17
2018-11-02T03:19:54.791Z,28.70
2018-11-02T03:22:22.790Z,30.30
2018-11-02T03:24:50.736Z,29.73
2018-11-02T03:27:18.708Z,27.47
2018-11-02T03:29:46.710Z,30.40
2018-11-02T03:32:14.693Z,35.23
2018-11-02T03:34:42.696Z,29.20
2018-11-02T03:37:10.668Z,30.80
2018-11-02T03:39:38.652Z,28.97
2018-11-02T03:42:06.892Z,32.30
2018-11-02T03:44:34.889Z,27.90
2018-11-02T03:47:02.873Z,30.90
2018-11-02T03:49:30.852Z,27.90
2018-11-02T03:51:58.877Z,28.20
2018-11-02T03:54:26.916Z,31.83
2018-11-02T03:56:55.003Z,25.70
2018-11-02T03:59:22.866Z,29.70
2018-11-02T04:01:50.834Z,28.37
2018-11-02T04:04:18.792Z,25.17
2018-11-02T04:06:53.475Z,30.00
2018-11-02T04:09:21.498Z,29.67
2018-11-02T04:11:49.404Z,25.40
2018-11-02T04:14:17.370Z,25.43
2018-11-02T04:16:45.337Z,26.20
2018-11-02T04:19:13.348Z,26.37
2018-11-02T04:21:43.745Z,21.10
2018-11-02T04:24:11.798Z,29.87
2018-11-02T04:26:40.193Z,22.80
2018-11-02T04:29:08.357Z,22.23
2018-11-02T04:31:36.326Z,23.30
2018-11-02T04:34:04.717Z,25.10
2018-11-02T04:36:32.707Z,23.50
2018-11-02T04:39:00.691Z,22.70
2018-11-02T04:41:28.652Z,24.20
2018-11-02T04:43:56.771Z,26.83
2018-11-02T04:46:24.757Z,23.27
2018-11-02T04:48:52.736Z,24.80
2018-11-02T04:51:20.686Z,23.33
2018-11-02T04:53:48.668Z,20.37
2018-11-02T04:56:16.636Z,21.03
2018-11-02T04:58:44.646Z,20.70
2018-11-02T05:01:12.663Z,23.60
2018-11-02T05:03:40.720Z,21.57
2018-11-02T05:06:08.715Z,18.00
2018-11-02T05:08:36.676Z,26.40
2018-11-02T05:11:05.421Z,23.83
2018-11-02T05:13:33.359Z,19.83
2018-11-02T05:16:01.393Z,17.57
2018-11-02T05:18:29.709Z,20.93
2018-11-02T05:20:57.679Z,21.30
2018-11-02T05:23:25.639Z,22.73
2018-11-02T05:25:53.603Z,23.23
2018-11-02T05:28:21.593Z,19.43
2018-11-02T05:30:49.568Z,22.13
2018-11-02T05:33:17.604Z,18.50
2018-11-02T05:35:45.599Z,17.53
2018-11-02T05:38:13.809Z,20.67
2018-11-02T05:40:41.808Z,22.40
2018-11-02T05:43:09.892Z,21.03
2018-11-02T05:45:37.939Z,20.73
2018-11-02T05:48:06.089Z,19.57
2018-11-02T05:50:34.060Z,16.03
2018-11-02T05:53:02.035Z,19.57
2018-11-02T05:55:30.015Z,18.07
2018-11-02T05:57:57.991Z,14.63
2018-11-02T06:00:26.007Z,15.97
2018-11-02T06:02:53.977Z,17.40
2018-11-02T06:05:21.928Z,18.77
2018-11-02T06:07:49.983Z,16.70
2018-11-02T06:10:17.930Z,16.90
2018-11-02T06:12:46.000Z,16.97
2018-11-02T06:15:14.107Z,19.40
2018-11-02T06:17:42.158Z,21.23
2018-11-02T06:20:16.692Z,18.77
2018-11-02T06:22:44.656Z,22.80
2018-11-02T06:25:12.628Z,15.67
2018-11-02T06:27:40.643Z,14.80
2018-11-02T06:30:09.161Z,14.80
2018-11-02T06:32:37.256Z,19.53
2018-11-02T06:35:06.033Z,19.60
2018-11-02T06:37:34.053Z,20.33
2018-11-02T06:40:02.020Z,14.67
2018-11-02T06:42:29.988Z,13.87
2018-11-02T06:44:58.107Z,16.30
2018-11-02T06:47:26.077Z,15.33
2018-11-02T06:49:54.061Z,16.57
2018-11-02T06:52:22.080Z,18.60
2018-11-02T06:54:50.169Z,14.00
2018-11-02T06:57:18.121Z,16.13
2018-11-02T06:59:46.621Z,18.07
2018-11-02T07:02:14.277Z,16.80
2018-11-02T07:04:42.291Z,13.97
2018-11-02T07:07:10.324Z,14.43
2018-11-02T07:09:38.236Z,13.53
2018-11-02T07:12:06.208Z,13.73
2018-11-02T07:14:34.159Z,13.47
2018-11-02T07:17:02.131Z,15.47
2018-11-02T07:19:30.115Z,17.37
2018-11-02T07:21:58.117Z,12.40
2018-11-02T07:24:26.105Z,11.20
2018-11-02T07:26:54.160Z,11.97
2018-11-02T07:29:22.205Z,10.07
2018-11-02T07:31:50.404Z,11.33
2018-11-02T07:34:18.536Z,10.53
2018-11-02T07:36:46.526Z,8.80
2018-11-02T07:39:14.507Z,11.77
2018-11-02T07:41:42.485Z,12.53
2018-11-02T07:44:10.548Z,14.90
2018-11-02T07:46:39.053Z,12.03
2018-11-02T07:49:07.071Z,10.40
2018-11-02T07:51:35.060Z,8.20
2018-11-02T07:54:03.050Z,9.93
2018-11-02T07:56:31.137Z,14.43
2018-11-02T07:58:59.149Z,11.10
2018-11-02T08:01:27.152Z,9.00
2018-11-02T08:03:55.116Z,8.40
2018-11-02T08:06:23.100Z,9.70
2018-11-02T08:08:51.348Z,9.40
2018-11-02T08:11:19.416Z,10.10
2018-11-02T08:13:47.400Z,12.10
2018-11-02T08:16:15.391Z,9.73
2018-11-02T08:18:43.447Z,10.30
2018-11-02T08:21:11.400Z,17.13
2018-11-02T08:23:39.363Z,11.30
2018-11-02T08:26:07.357Z,14.00
2018-11-02T08:28:35.346Z,15.83
2018-11-02T08:31:03.416Z,14.63
2018-11-02T08:33:31.372Z,14.30
2018-11-02T08:35:59.380Z,17.83
2018-11-02T08:38:27.409Z,12.40
2018-11-02T08:40:55.361Z,13.70
2018-11-02T08:43:23.337Z,12.70
2018-11-02T08:45:51.414Z,12.13
2018-11-02T08:48:19.394Z,12.57
2018-11-02T08:50:47.416Z,14.13
2018-11-02T08:53:15.981Z,13.70
2018-11-02T08:55:43.953Z,12.83
2018-11-02T08:58:12.095Z,14.10
2018-11-02T09:00:39.982Z,14.90
2018-11-02T09:03:07.956Z,12.70
2018-11-02T09:05:36.053Z,14.70
2018-11-02T09:08:04.030Z,12.63
2018-11-02T09:10:32.020Z,12.57
2018-11-02T09:13:00.096Z,14.63
2018-11-02T09:15:28.209Z,16.27
2018-11-02T09:17:56.188Z,18.80
2018-11-02T09:20:24.196Z,16.20
2018-11-02T09:22:52.374Z,18.00
2018-11-02T09:25:20.328Z,16.00
2018-11-02T09:27:48.405Z,17.97
2018-11-02T09:30:17.009Z,16.40
2018-11-02T09:32:45.584Z,15.17
2018-11-02T09:35:14.257Z,18.37
2018-11-02T09:37:42.741Z,15.87
2018-11-02T09:40:12.572Z,19.37
2018-11-02T09:42:40.566Z,18.40
2018-11-02T09:45:10.763Z,16.80
2018-11-02T09:47:38.837Z,19.17
2018-11-02T09:50:07.296Z,17.93
2018-11-02T09:52:36.083Z,16.90
2018-11-02T09:55:04.190Z,18.60
2018-11-02T09:57:32.278Z,19.67
2018-11-02T10:00:00.206Z,15.87
2018-11-02T10:02:28.284Z,19.37
2018-11-02T10:04:56.289Z,17.07
2018-11-02T10:07:24.276Z,20.93
2018-11-02T10:09:52.304Z,19.37
2018-11-02T10:12:20.447Z,22.13
2018-11-02T10:14:48.546Z,19.63
2018-11-02T10:17:16.696Z,17.20
2018-11-02T10:19:44.756Z,16.57
2018-11-02T10:22:12.770Z,14.83
2018-11-02T10:24:40.766Z,16.30
2018-11-02T10:27:09.227Z,11.10
2018-11-02T10:29:37.660Z,14.67
2018-11-02T10:32:05.634Z,13.40
2018-11-02T10:34:33.607Z,10.37
2018-11-02T10:37:01.622Z,11.73
2018-11-02T10:39:29.650Z,10.67
2018-11-02T10:41:59.181Z,13.93
2018-11-02T10:44:34.998Z,11.20
2018-11-02T10:47:04.421Z,16.03
2018-11-02T10:49:32.766Z,11.90
2018-11-02T10:52:00.689Z,19.23
2018-11-02T10:54:28.694Z,11.83
2018-11-02T10:56:56.673Z,11.63
2018-11-02T10:59:24.748Z,10.73
2018-11-02T11:01:58.141Z,11.93
2018-11-02T11:04:26.116Z,11.00
2018-11-02T11:06:54.177Z,12.53
2018-11-02T11:09:22.227Z,11.90
2018-11-02T11:11:51.089Z,13.20
2018-11-02T11:14:18.957Z,14.83
2018-11-02T11:16:46.990Z,12.23
2018-11-02T11:19:15.035Z,15.30
2018-11-02T11:21:43.316Z,14.50
2018-11-02T11:24:11.321Z,12.00
2018-11-02T11:26:39.555Z,12.83
2018-11-02T11:29:08.479Z,16.87
2018-11-02T11:31:36.840Z,17.33
2018-11-02T11:34:05.776Z,20.43
2018-11-02T11:36:33.706Z,16.97
2018-11-02T11:39:01.764Z,15.37
2018-11-02T11:41:29.834Z,18.23
2018-11-02T11:43:57.805Z,22.40
2018-11-02T11:46:25.809Z,19.40
2018-11-02T11:48:53.871Z,26.60
2018-11-02T11:51:21.799Z,22.73
2018-11-02T11:53:49.828Z,18.80
2018-11-02T11:56:17.820Z,20.00
2018-11-02T11:58:45.838Z,19.27
2018-11-02T12:01:13.979Z,15.27
2018-11-02T12:03:42.057Z,14.80
2018-11-02T12:06:10.089Z,21.83
2018-11-02T12:08:38.047Z,15.97
2018-11-02T12:11:06.242Z,23.10
2018-11-02T12:13:34.292Z,18.80
2018-11-02T12:16:02.523Z,22.13
2018-11-02T12:18:30.506Z,17.03
2018-11-02T12:20:58.476Z,19.33
2018-11-02T12:23:26.510Z,17.30
2018-11-02T12:25:54.441Z,20.07
2018-11-02T12:28:22.476Z,17.50
2018-11-02T12:30:51.180Z,17.33
2018-11-02T12:33:19.351Z,17.87
2018-11-02T12:35:47.425Z,17.40
2018-11-02T12:38:15.403Z,14.73
2018-11-02T12:40:43.360Z,17.27
2018-11-02T12:43:11.336Z,17.90
2018-11-02T12:45:39.396Z,14.63
2018-11-02T12:48:07.450Z,14.07
2018-11-02T12:50:35.429Z,15.07
2018-11-02T12:53:03.308Z,17.00
2018-11-02T12:55:31.323Z,17.27
2018-11-02T12:57:59.316Z,13.20
2018-11-02T13:00:28.329Z,16.30
2018-11-02T13:02:56.493Z,14.10
2018-11-02T13:05:24.511Z,16.40
2018-11-02T13:07:52.490Z,13.67
2018-11-02T13:10:21.526Z,16.67
2018-11-02T13:12:49.514Z,9.43
2018-11-02T13:15:19.024Z,11.13
2018-11-02T13:17:47.859Z,12.33
2018-11-02T13:20:16.125Z,11.87
2018-11-02T13:22:44.824Z,9.87
2018-11-02T13:25:14.245Z,10.17
2018-11-02T13:27:42.741Z,10.33
2018-11-02T13:30:11.377Z,9.90
2018-11-02T13:32:39.509Z,12.27
2018-11-02T13:35:09.952Z,11.60
2018-11-02T13:37:37.936Z,12.83
2018-11-02T13:40:07.412Z,9.23
2018-11-02T13:42:35.392Z,10.07
2018-11-02T13:45:03.634Z,9.40
2018-11-02T13:47:31.640Z,11.03
2018-11-02T13:49:59.629Z,10.43
2018-11-02T13:52:28.004Z,13.27
2018-11-02T13:54:55.992Z,13.13
2018-11-02T13:57:23.951Z,15.37
2018-11-02T13:59:51.945Z,13.93
2018-11-02T14:02:19.938Z,15.77
2018-11-02T14:04:47.941Z,19.63
2018-11-02T14:07:22.616Z,16.83
2018-11-02T14:09:50.706Z,14.10
2018-11-02T14:12:18.724Z,13.07
2018-11-02T14:14:46.696Z,15.50
2018-11-02T14:17:14.783Z,13.70
2018-11-02T14:19:43.059Z,15.40
2018-11-02T14:22:11.027Z,16.83
2018-11-02T14:24:38.996Z,12.77
2018-11-02T14:27:07.020Z,18.57
2018-11-02T14:29:35.357Z,20.30
2018-11-02T14:32:03.243Z,15.70
2018-11-02T14:34:31.240Z,15.77
2018-11-02T14:36:59.237Z,20.23
2018-11-02T14:39:27.187Z,15.47
2018-11-02T14:41:55.184Z,15.47
2018-11-02T14:44:23.252Z,16.77
2018-11-02T14:46:51.339Z,14.30
2018-11-02T14:49:19.345Z,16.60
2018-11-02T14:51:47.291Z,14.97
2018-11-02T14:54:15.244Z,13.77
2018-11-02T14:56:43.239Z,20.33
2018-11-02T14:59:11.832Z,13.90
2018-11-02T15:01:39.817Z,15.60
2018-11-02T15:04:07.804Z,16.40
2018-11-02T15:06:35.892Z,14.53
2018-11-02T15:09:06.369Z,13.30
2018-11-02T15:11:34.482Z,9.33
2018-11-02T15:14:02.342Z,11.10
2018-11-02T15:16:30.348Z,10.10
2018-11-02T15:18:58.404Z,12.07
2018-11-02T15:21:26.369Z,12.07
2018-11-02T15:23:54.308Z,17.00
2018-11-02T15:26:22.302Z,14.07
2018-11-02T15:28:50.261Z,15.57
2018-11-02T15:31:18.233Z,10.10
2018-11-02T15:33:46.221Z,15.13
2018-11-02T15:36:14.288Z,14.13
2018-11-02T15:38:42.259Z,14.90
2018-11-02T15:41:10.241Z,13.10
2018-11-02T15:43:38.225Z,16.47
2018-11-02T15:46:06.219Z,17.17
2018-11-02T15:48:34.181Z,19.53
2018-11-02T15:51:02.164Z,17.50
2018-11-02T15:53:30.204Z,14.30
2018-11-02T15:55:58.142Z,15.27
2018-11-02T15:58:26.895Z,16.50
2018-11-02T16:00:55.013Z,22.33
2018-11-02T16:03:22.992Z,14.77
2018-11-02T16:05:50.943Z,18.77
2018-11-02T16:08:18.913Z,16.23
2018-11-02T16:10:46.895Z,14.20
2018-11-02T16:13:14.891Z,19.20
2018-11-02T16:15:42.904Z,19.73
2018-11-02T16:18:10.865Z,15.50
2018-11-02T16:20:38.993Z,14.07
2018-11-02T16:23:06.909Z,16.17
2018-11-02T16:25:34.979Z,14.43
2018-11-02T16:28:02.952Z,15.57
2018-11-02T16:30:30.925Z,13.07
2018-11-02T16:32:58.895Z,16.20
2018-11-02T16:35:26.873Z,15.37
2018-11-02T16:37:54.945Z,18.23
2018-11-02T16:40:23.125Z,13.70
2018-11-02T16:42:51.113Z,13.03
2018-11-02T16:45:19.496Z,18.10
2018-11-02T16:47:47.602Z,19.33
2018-11-02T16:50:15.926Z,13.97
2018-11-02T16:52:44.388Z,14.63
2018-11-02T16:55:12.425Z,24.13
2018-11-02T16:57:40.903Z,21.60
2018-11-02T17:00:11.057Z,20.37
2018-11-02T17:02:39.226Z,18.17
2018-11-02T17:05:07.543Z,20.03
2018-11-02T17:07:35.385Z,16.00
2018-11-02T17:10:03.780Z,20.73
2018-11-02T17:12:31.732Z,15.33
2018-11-02T17:14:59.692Z,24.90
2018-11-02T17:17:27.708Z,13.77
2018-11-02T17:19:55.655Z,16.20
2018-11-02T17:22:23.660Z,16.73
2018-11-02T17:24:51.612Z,23.87
2018-11-02T17:27:19.628Z,19.67
2018-11-02T17:29:47.622Z,20.77
2018-11-02T17:32:15.574Z,20.37
2018-11-02T17:34:43.634Z,22.83
2018-11-02T17:37:12.220Z,24.30
2018-11-02T17:39:40.272Z,23.17
2018-11-02T17:42:08.247Z,30.00
2018-11-02T17:44:36.229Z,19.53
2018-11-02T17:47:04.232Z,17.40
2018-11-02T17:49:32.360Z,25.63
2018-11-02T17:52:00.428Z,22.23
2018-11-02T17:54:28.500Z,28.77
2018-11-02T17:56:56.572Z,23.90
2018-11-02T17:59:24.569Z,22.87
2018-11-02T18:01:53.117Z,23.50
2018-11-02T18:04:21.094Z,24.47
2018-11-02T18:06:49.177Z,21.60
2018-11-02T18:09:17.153Z,24.33
2018-11-02T18:11:45.221Z,26.03
2018-11-02T18:14:13.225Z,22.23
2018-11-02T18:16:41.245Z,22.30
2018-11-02T18:19:09.258Z,22.00
2018-11-02T18:21:37.216Z,19.90
2018-11-02T18:24:05.515Z,22.00
2018-11-02T18:26:33.516Z,23.20
2018-11-02T18:29:01.642Z,23.07
2018-11-02T18:31:29.653Z,23.70
2018-11-02T18:33:57.602Z,25.20
2018-11-02T18:36:25.585Z,20.83
2018-11-02T18:38:53.568Z,21.17
2018-11-02T18:41:21.561Z,20.80
2018-11-02T18:43:52.188Z,24.83
2018-11-02T18:46:20.152Z,21.67
2018-11-02T18:48:48.211Z,22.93
2018-11-02T18:51:16.167Z,21.93
2018-11-02T18:53:44.152Z,22.10
2018-11-02T18:56:12.148Z,21.53
2018-11-02T18:58:40.206Z,27.67
2018-11-02T19:01:08.473Z,26.17
2018-11-02T19:03:36.493Z,27.00
2018-11-02T19:06:04.500Z,28.00
2018-11-02T19:08:32.513Z,25.33
2018-11-02T19:11:04.054Z,29.17
2018-11-02T19:13:32.132Z,31.77
2018-11-02T19:16:00.039Z,31.57
2018-11-02T19:18:28.091Z,30.20
2018-11-02T19:20:56.109Z,29.00
2018-11-02T19:23:24.161Z,29.73
2018-11-02T19:25:52.189Z,29.80
2018-11-02T19:28:20.273Z,29.43
2018-11-02T19:30:48.248Z,28.97
2018-11-02T19:33:16.293Z,27.37
2018-11-02T19:35:44.285Z,28.83
2018-11-02T19:38:12.706Z,28.93
2018-11-02T19:40:40.432Z,28.63
2018-11-02T19:43:08.441Z,31.70
2018-11-02T19:45:36.462Z,25.00
2018-11-02T19:48:05.289Z,25.67
2018-11-02T19:50:33.368Z,25.77
2018-11-02T19:53:01.336Z,29.50
2018-11-02T19:55:29.347Z,26.87
2018-11-02T19:57:57.331Z,20.70
2018-11-02T20:00:25.293Z,26.77
2018-11-02T20:02:53.261Z,23.50
2018-11-02T20:05:21.615Z,26.53
2018-11-02T20:07:49.588Z,21.30
2018-11-02T20:10:18.264Z,19.87
2018-11-02T20:12:47.069Z,20.53
2018-11-02T20:15:16.076Z,34.03
2018-11-02T20:17:44.512Z,19.03
2018-11-02T20:20:13.691Z,19.40
2018-11-02T20:22:41.676Z,20.67
2018-11-02T20:25:11.944Z,16.70
2018-11-02T20:27:39.976Z,23.20
2018-11-02T20:30:10.030Z,17.37
2018-11-02T20:32:38.041Z,22.20
2018-11-02T20:35:06.732Z,33.03
2018-11-02T20:37:34.801Z,21.93
2018-11-02T20:40:02.822Z,20.70
2018-11-02T20:42:30.801Z,18.30
2018-11-02T20:44:58.817Z,21.63
2018-11-02T20:47:26.801Z,20.50
2018-11-02T20:49:54.816Z,21.37
2018-11-02T20:52:22.797Z,21.00
2018-11-02T20:54:50.812Z,22.97
2018-11-02T20:57:19.214Z,18.73
2018-11-02T21:02:32.961Z,22.00
2018-11-02T21:05:00.962Z,21.10
2018-11-02T21:07:28.986Z,27.27
2018-11-02T21:09:56.896Z,19.53
2018-11-02T21:12:24.901Z,24.03
2018-11-02T21:14:53.018Z,20.90
2018-11-02T21:17:21.060Z,41.97
2018-11-02T21:19:49.009Z,22.17
2018-11-02T21:22:16.977Z,22.37
2018-11-02T21:24:44.984Z,23.30
2018-11-02T21:27:12.985Z,25.03
2018-11-02T21:29:40.984Z,24.63
2018-11-02T21:32:08.962Z,26.93
2018-11-02T21:34:37.025Z,21.03
2018-11-02T21:37:05.156Z,27.47
2018-11-02T21:39:33.170Z,20.63
2018-11-02T21:42:01.165Z,22.70
2018-11-02T21:44:29.149Z,23.20
2018-11-02T21:46:57.186Z,28.50
2018-11-02T21:49:25.471Z,19.77
2018-11-02T21:51:53.551Z,22.03
2018-11-02T21:54:21.555Z,21.33
2018-11-02T21:56:49.524Z,24.60
2018-11-02T21:59:17.496Z,25.90
2018-11-02T22:01:45.585Z,26.80
2018-11-02T22:04:13.793Z,21.23
2018-11-02T22:06:41.756Z,22.70
2018-11-02T22:09:10.545Z,22.77
2018-11-02T22:11:38.592Z,32.53
2018-11-02T22:14:06.930Z,27.50
2018-11-02T22:16:34.969Z,29.73
2018-11-02T22:19:02.992Z,27.20
2018-11-02T22:21:31.012Z,27.40
2018-11-02T22:23:59.135Z,28.13
2018-11-02T22:26:27.126Z,23.60
2018-11-02T22:28:55.170Z,28.70
2018-11-02T22:31:23.101Z,26.20
2018-11-02T22:33:51.130Z,26.23
2018-11-02T22:36:19.130Z,31.70
2018-11-02T22:38:47.105Z,31.63
2018-11-02T22:41:15.125Z,28.23
2018-11-02T22:43:43.096Z,27.00
2018-11-02T22:46:11.086Z,34.57
2018-11-02T22:48:39.115Z,29.87
2018-11-02T22:51:07.184Z,26.00
2018-11-02T22:53:35.219Z,29.93
2018-11-02T22:56:03.192Z,29.67
2018-11-02T22:58:31.219Z,31.80
2018-11-02T23:01:04.716Z,49.33
2018-11-02T23:03:32.731Z,30.50
2018-11-02T23:06:00.773Z,31.53
2018-11-02T23:08:28.800Z,39.27
2018-11-02T23:10:56.799Z,33.40
2018-11-02T23:13:24.775Z,30.30
2018-11-02T23:15:52.789Z,32.40
2018-11-02T23:18:20.822Z,32.90
2018-11-02T23:20:48.804Z,31.17
2018-11-02T23:23:16.810Z,31.50
2018-11-02T23:25:44.831Z,33.83
2018-11-02T23:28:12.829Z,33.43
2018-11-02T23:30:40.817Z,34.73
2018-11-02T23:33:08.847Z,36.67
2018-11-02T23:35:36.807Z,36.70
2018-11-02T23:38:04.943Z,30.53
2018-11-02T23:40:32.984Z,30.90
2018-11-02T23:43:00.964Z,36.33
2018-11-02T23:45:29.037Z,37.93
2018-11-02T23:48:27.880Z,32.43
2018-11-02T23:50:55.866Z,36.10
2018-11-02T23:53:23.954Z,36.00
2018-11-02T23:55:51.997Z,33.30
2018-11-02T23:58:20.242Z,40.00
